Time;durP1;ratioP1;P1;durP2;ratioP2;P2;SDS_P1;SDS_P2;PMS_P1;PMS_P2;Temp;Humidity;BMP_temperature;BMP_pressure;BME280_temperature;BME280_humidity;BME280_pressure;Samples;Min_cycle;Max_cycle;Signal;HPM_P1;HPM_P2
2022/08/29 00:00:44;;;;;;;14.73;6.58;;;;;;;19.77;88.33;99408.44;1612876;88;21807;-79
2022/08/29 00:03:10;;;;;;;12.80;7.10;;;;;;;19.82;87.48;99408.56;1617659;88;21281;-76
2022/08/29 00:05:37;;;;;;;11.50;7.10;;;;;;;19.79;85.38;99399.59;1615705;88;21029;-79
2022/08/29 00:08:04;;;;;;;22.37;7.40;;;;;;;19.73;85.13;99401.89;1608868;88;21027;-80
2022/08/29 00:10:32;;;;;;;13.80;8.10;;;;;;;19.75;85.22;99400.31;1618573;87;21017;-82
2022/08/29 00:12:59;;;;;;;12.85;7.08;;;;;;;19.75;85.50;99403.81;1604870;88;21496;-77
2022/08/29 00:15:27;;;;;;;12.78;7.03;;;;;;;19.68;85.44;99396.88;1617888;88;21060;-79
2022/08/29 00:17:53;;;;;;;14.98;7.70;;;;;;;19.70;85.56;99392.92;1608149;88;21056;-78
2022/08/29 00:20:25;;;;;;;12.78;8.15;;;;;;;19.70;86.10;99389.38;1609317;88;21563;-79
2022/08/29 00:22:53;;;;;;;11.73;7.95;;;;;;;19.70;86.15;99398.81;1618460;88;21024;-80
2022/08/29 00:25:19;;;;;;;13.03;7.25;;;;;;;19.68;86.74;99396.88;1615486;88;21197;-80
2022/08/29 00:27:45;;;;;;;12.90;7.60;;;;;;;19.75;86.63;99394.92;1618023;88;20973;-78
2022/08/29 00:30:13;;;;;;;13.90;7.50;;;;;;;19.78;85.95;99399.82;1614196;88;21027;-77
2022/08/29 00:32:40;;;;;;;14.18;7.90;;;;;;;19.76;85.48;99396.04;1606897;88;21049;-78
2022/08/29 00:35:14;;;;;;;12.58;7.80;;;;;;;19.86;84.64;99397.29;1605198;88;21083;-79
2022/08/29 00:37:41;;;;;;;13.90;7.37;;;;;;;19.89;84.47;99394.94;1618658;88;21163;-79
2022/08/29 00:40:12;;;;;;;11.28;6.80;;;;;;;19.90;84.30;99399.83;1616458;88;21056;-79
2022/08/29 00:42:40;;;;;;;11.50;7.10;;;;;;;19.95;83.79;99391.83;1611279;88;21571;-81
2022/08/29 00:45:09;;;;;;;13.20;7.87;;;;;;;19.99;82.58;99398.37;1618986;88;21177;-82
2022/08/29 00:47:40;;;;;;;12.85;7.47;;;;;;;19.95;82.70;99391.31;1616418;88;21056;-80
2022/08/29 00:50:07;;;;;;;12.90;7.28;;;;;;;20.01;83.35;99396.27;1618653;88;22001;-80
2022/08/29 00:52:39;;;;;;;15.05;8.60;;;;;;;20.02;83.17;99396.03;1617987;88;21068;-80
2022/08/29 00:55:11;;;;;;;13.13;7.70;;;;;;;19.97;83.34;99399.14;1618744;88;21572;-81
2022/08/29 00:57:40;;;;;;;10.18;7.55;;;;;;;19.99;82.94;99395.17;1621455;88;21072;-80
2022/08/29 01:00:09;;;;;;;15.55;9.20;;;;;;;20.01;82.96;99386.83;1605318;88;20944;-79
2022/08/29 01:02:39;;;;;;;11.80;7.97;;;;;;;19.97;83.49;99388.36;1621352;88;21723;-81
2022/08/29 01:05:08;;;;;;;12.33;7.45;;;;;;;19.97;83.40;99387.86;1620712;87;21073;-81
2022/08/29 01:07:35;;;;;;;11.57;7.60;;;;;;;20.02;82.84;99389.28;1618859;88;21114;-84
2022/08/29 01:10:02;;;;;;;14.40;7.28;;;;;;;19.99;81.70;99391.13;1619462;86;21557;-83
2022/08/29 01:12:29;;;;;;;13.15;7.25;;;;;;;19.95;81.99;99385.09;1615426;88;21153;-81
2022/08/29 01:15:01;;;;;;;11.57;6.80;;;;;;;19.99;82.08;99390.29;1619304;88;21992;-83
2022/08/29 01:17:32;;;;;;;14.10;7.15;;;;;;;20.02;81.51;99387.12;1616836;88;21044;-82
2022/08/29 01:20:09;;;;;;;10.85;6.80;;;;;;;19.96;81.64;99383.50;1618495;88;21726;-84
2022/08/29 01:23:03;;;;;;;11.40;6.83;;;;;;;19.97;81.92;99380.27;1617634;88;21132;-83
2022/08/29 01:25:35;;;;;;;13.48;7.65;;;;;;;20.06;81.71;99382.89;1614819;87;21099;-81
2022/08/29 01:28:18;;;;;;;;;;;;;;;20.06;81.53;99385.59;1612448;88;21168;-81
2022/08/29 01:31:08;;;;;;;11.70;6.53;;;;;;;20.04;81.59;99383.13;1619214;87;20250;-81
2022/08/29 01:33:49;;;;;;;10.58;7.70;;;;;;;20.06;81.93;99381.55;1603698;88;21060;-83
2022/08/29 01:36:20;;;;;;;15.05;7.65;;;;;;;20.15;81.51;99382.00;1608711;88;21036;-82
2022/08/29 01:38:47;;;;;;;10.82;6.83;;;;;;;20.13;81.75;99380.88;1615137;88;21151;-82
2022/08/29 01:41:13;;;;;;;9.85;6.97;;;;;;;20.09;81.83;99377.54;1615910;88;21144;-82
2022/08/29 01:43:47;;;;;;;11.88;7.58;;;;;;;20.18;81.57;99382.31;1632063;87;21018;-82
2022/08/29 01:46:18;;;;;;;12.58;7.87;;;;;;;20.21;81.61;99381.84;1610651;87;21017;-80
2022/08/29 01:48:44;;;;;;;12.23;7.25;;;;;;;20.17;81.98;99375.30;1606420;88;21378;-80
2022/08/29 01:51:11;;;;;;;11.80;7.67;;;;;;;20.13;81.25;99376.84;1615979;88;21102;-82
2022/08/29 01:53:39;;;;;;;13.72;7.97;;;;;;;20.21;81.24;99376.98;1618642;88;21628;-81
2022/08/29 01:56:13;;;;;;;12.40;7.08;;;;;;;20.23;80.90;99372.98;1612246;88;21095;-80
2022/08/29 01:58:42;;;;;;;10.00;7.45;;;;;;;20.20;79.64;99378.88;1622189;87;21608;-80
2022/08/29 02:01:09;;;;;;;8.30;6.35;;;;;;;20.17;79.92;99378.53;1618544;88;21085;-79
2022/08/29 02:03:37;;;;;;;9.48;6.67;;;;;;;20.23;79.12;99376.22;1610522;88;21074;-82
2022/08/29 02:06:04;;;;;;;10.25;7.03;;;;;;;20.27;78.43;99377.91;1611101;88;21230;-82
2022/08/29 02:08:30;;;;;;;12.55;8.30;;;;;;;20.25;78.44;99380.03;1621751;87;20977;-78
2022/08/29 02:10:57;;;;;;;13.58;6.62;;;;;;;20.20;78.29;99380.73;1589778;86;21117;-81
2022/08/29 02:13:23;;;;;;;13.05;6.92;;;;;;;20.18;77.96;99371.53;1597055;88;21077;-82
2022/08/29 02:15:52;;;;;;;10.32;6.70;;;;;;;20.28;78.02;99372.79;1599600;89;21104;-82
2022/08/29 02:18:18;;;;;;;11.25;7.03;;;;;;;20.28;78.15;99373.63;1595012;89;21592;-81
2022/08/29 02:20:45;;;;;;;10.20;7.22;;;;;;;20.23;77.25;99372.17;1593754;88;21120;-80
2022/08/29 02:23:11;;;;;;;10.45;7.58;;;;;;;20.17;76.97;99369.91;1600932;89;21032;-78
2022/08/29 02:25:42;;;;;;;10.03;7.00;;;;;;;20.09;77.37;99374.34;1602617;89;21051;-80
2022/08/29 02:28:13;;;;;;;12.40;6.78;;;;;;;20.12;76.64;99376.54;1597096;89;21156;-80
2022/08/29 02:30:46;;;;;;;10.48;6.70;;;;;;;20.09;76.16;99374.84;1603281;88;21254;-82
2022/08/29 02:33:12;;;;;;;9.53;7.27;;;;;;;19.99;75.15;99369.56;1598121;89;21084;-81
2022/08/29 02:35:39;;;;;;;12.90;7.20;;;;;;;19.93;75.62;99367.80;1598124;88;21325;-82
2022/08/29 02:38:06;;;;;;;16.90;7.53;;;;;;;19.89;75.35;99377.95;1578950;89;21527;-80
2022/08/29 02:40:33;;;;;;;11.25;6.92;;;;;;;19.96;74.63;99380.00;1570566;89;21066;-82
2022/08/29 02:42:59;;;;;;;12.73;7.05;;;;;;;19.94;74.65;99375.37;1557776;90;21142;-81
2022/08/29 02:45:26;;;;;;;14.83;8.40;;;;;;;19.88;73.94;99376.34;1583875;90;21128;-81
2022/08/29 02:47:52;;;;;;;15.48;7.83;;;;;;;19.82;74.16;99380.26;1595954;89;21084;-84
2022/08/29 02:50:19;;;;;;;11.95;7.55;;;;;;;19.78;74.25;99379.10;1602045;89;21076;-82
2022/08/29 02:52:45;;;;;;;15.45;8.35;;;;;;;19.84;74.45;99378.15;1597589;89;21049;-82
2022/08/29 02:55:15;;;;;;;11.00;7.45;;;;;;;19.88;73.78;99373.64;1602906;89;21200;-82
2022/08/29 02:57:42;;;;;;;10.55;8.00;;;;;;;19.81;73.40;99377.26;1602648;89;21030;-83
2022/08/29 03:00:13;;;;;;;16.93;8.03;;;;;;;19.76;73.81;99377.17;1597699;89;21067;-82
2022/08/29 03:02:40;;;;;;;16.05;8.30;;;;;;;19.72;73.57;99377.86;1602579;89;21140;-83
2022/08/29 03:05:07;;;;;;;13.72;7.30;;;;;;;19.68;73.29;99377.48;1594883;89;21065;-77
2022/08/29 03:07:35;;;;;;;15.68;8.00;;;;;;;19.77;73.10;99377.45;1595612;89;22189;-77
2022/08/29 03:10:01;;;;;;;14.47;8.80;;;;;;;19.75;73.17;99380.09;1590095;86;21638;-76
2022/08/29 03:12:28;;;;;;;13.95;8.10;;;;;;;19.70;73.14;99383.48;1587571;89;21072;-80
2022/08/29 03:14:55;;;;;;;15.78;8.60;;;;;;;19.64;72.95;99386.59;1609978;88;21056;-78
2022/08/29 03:17:22;;;;;;;10.23;7.00;;;;;;;19.60;72.93;99390.79;1617171;88;21013;-78
2022/08/29 03:19:48;;;;;;;15.20;8.35;;;;;;;19.65;72.41;99390.10;1618824;88;21131;-77
2022/08/29 03:22:15;;;;;;;11.97;7.42;;;;;;;19.72;71.68;99390.84;1652379;85;21008;-80
2022/08/29 03:24:41;;;;;;;13.58;7.22;;;;;;;19.73;71.48;99390.30;1622716;87;21055;-78
2022/08/29 03:27:08;;;;;;;13.28;7.60;;;;;;;19.69;71.98;99389.91;1606870;88;21074;-78
2022/08/29 03:29:34;;;;;;;12.07;7.90;;;;;;;19.64;72.10;99389.29;1642965;85;21074;-77
2022/08/29 03:32:01;;;;;;;9.35;7.95;;;;;;;19.59;72.08;99398.59;1644780;85;21241;-79
2022/08/29 03:34:28;;;;;;;11.03;6.95;;;;;;;19.61;71.92;99395.67;1648082;87;21067;-77
2022/08/29 03:36:54;;;;;;;10.90;7.10;;;;;;;19.65;71.41;99393.61;1648224;85;21058;-79
2022/08/29 03:39:22;;;;;;;9.28;6.83;;;;;;;19.60;71.62;99396.71;1648290;87;21554;-79
2022/08/29 03:41:48;;;;;;;11.63;7.05;;;;;;;19.55;71.91;99393.92;1643257;85;21074;-81
2022/08/29 03:44:15;;;;;;;11.83;7.03;;;;;;;19.49;72.03;99394.84;1646482;85;21115;-80
2022/08/29 03:46:42;;;;;;;11.85;6.25;;;;;;;19.44;72.02;99396.91;1612657;87;21091;-82
2022/08/29 03:49:08;;;;;;;13.65;6.37;;;;;;;19.45;72.12;99400.72;1642210;85;21154;-83
2022/08/29 03:51:37;;;;;;;9.83;6.47;;;;;;;19.55;71.49;99399.31;1649778;87;21039;-83
2022/08/29 03:54:05;;;;;;;10.93;6.12;;;;;;;19.58;71.29;99403.68;1649336;86;20994;-84
2022/08/29 03:56:31;;;;;;;10.65;6.35;;;;;;;19.60;71.05;99402.10;1650051;85;21094;-82
2022/08/29 03:58:58;;;;;;;9.90;5.62;;;;;;;19.67;71.16;99400.65;1648476;86;21103;-81
2022/08/29 04:01:27;;;;;;;11.08;6.05;;;;;;;19.70;70.81;99402.34;1640008;87;20931;-80
2022/08/29 04:03:55;;;;;;;15.10;5.95;;;;;;;19.73;70.63;99414.02;1648489;87;21595;-79
2022/08/29 04:06:23;;;;;;;14.73;7.30;;;;;;;19.73;69.59;99405.94;1645407;87;21571;-79
2022/08/29 04:08:50;;;;;;;13.25;6.75;;;;;;;19.74;70.06;99404.89;1639182;87;22338;-78
2022/08/29 04:11:18;;;;;;;10.70;6.22;;;;;;;19.75;69.96;99410.55;1644917;85;21129;-83
2022/08/29 04:13:45;;;;;;;7.67;5.50;;;;;;;19.77;69.97;99413.83;1644076;87;21107;-82
2022/08/29 04:16:18;;;;;;;13.25;6.80;;;;;;;19.93;69.79;99412.81;1636393;85;21023;-81
2022/08/29 04:18:44;;;;;;;9.55;6.53;;;;;;;20.09;69.51;99410.73;1642376;84;21090;-80
2022/08/29 04:21:11;;;;;;;11.30;7.05;;;;;;;20.14;69.19;99409.47;1647919;85;21595;-78
2022/08/29 04:23:38;;;;;;;13.75;6.15;;;;;;;20.13;69.41;99409.20;1639665;87;21095;-80
2022/08/29 04:26:08;;;;;;;7.37;5.80;;;;;;;20.13;69.14;99409.73;1632296;85;21575;-81
2022/08/29 04:28:35;;;;;;;11.65;7.47;;;;;;;20.13;69.07;99411.89;1649234;85;21004;-79
2022/08/29 04:31:02;;;;;;;10.85;6.37;;;;;;;20.23;68.57;99416.67;1669959;84;21094;-80
2022/08/29 04:33:28;;;;;;;13.98;6.65;;;;;;;20.31;68.37;99411.43;1649970;87;21154;-81
2022/08/29 04:35:55;;;;;;;15.68;6.83;;;;;;;20.33;68.36;99412.01;1648182;87;21087;-80
2022/08/29 04:38:21;;;;;;;13.38;7.10;;;;;;;20.32;67.97;99413.05;1647784;87;21083;-78
2022/08/29 04:40:48;;;;;;;13.95;6.25;;;;;;;20.30;68.24;99417.88;1648171;87;21090;-79
2022/08/29 04:43:15;;;;;;;10.55;6.20;;;;;;;20.28;68.34;99424.03;1649586;85;21058;-79
2022/08/29 04:45:43;;;;;;;14.10;7.05;;;;;;;20.26;68.75;99416.72;1648056;85;21581;-81
2022/08/29 04:49:02;;;;;;;11.65;6.75;;;;;;;20.29;69.19;99417.59;1812647;78;22794;-80
2022/08/29 04:51:29;;;;;;;13.40;7.78;;;;;;;20.32;68.97;99421.98;1776051;79;21502;-82
2022/08/29 04:53:55;;;;;;;9.33;6.35;;;;;;;20.38;68.43;99426.95;1767023;79;21813;-83
2022/08/29 04:56:22;;;;;;;11.65;7.08;;;;;;;20.37;68.65;99419.91;1779037;78;20966;-80
2022/08/29 04:58:50;;;;;;;11.88;7.65;;;;;;;20.35;68.81;99412.05;1774645;80;21494;-80
2022/08/29 05:01:21;;;;;;;14.90;8.25;;;;;;;20.35;69.20;99424.19;1771705;79;21055;-78
2022/08/29 05:03:48;;;;;;;12.07;7.83;;;;;;;20.37;69.42;99417.20;1765409;79;21220;-78
2022/08/29 05:06:16;;;;;;;13.90;8.73;;;;;;;20.39;69.44;99419.14;1738062;82;21178;-80
2022/08/29 05:08:44;;;;;;;16.87;9.05;;;;;;;20.42;69.68;99422.72;1780560;79;20998;-79
2022/08/29 05:11:16;;;;;;;13.53;9.18;;;;;;;20.45;69.74;99420.86;1766607;80;20945;-78
2022/08/29 05:13:42;;;;;;;15.68;9.65;;;;;;;20.50;69.28;99420.16;1786464;80;21076;-79
2022/08/29 05:16:11;;;;;;;15.98;9.45;;;;;;;20.53;69.17;99420.50;1758887;80;21031;-80
2022/08/29 05:18:40;;;;;;;13.25;9.50;;;;;;;20.57;69.16;99418.12;1770267;79;21103;-79
2022/08/29 05:21:09;;;;;;;15.43;9.43;;;;;;;20.62;68.68;99416.36;1763908;79;21584;-79
2022/08/29 05:23:35;;;;;;;21.52;11.50;;;;;;;20.66;67.91;99421.29;1783828;80;21600;-81
2022/08/29 05:26:03;;;;;;;16.50;10.30;;;;;;;20.69;67.92;99420.81;1770924;79;21068;-77
2022/08/29 05:28:32;;;;;;;15.28;10.48;;;;;;;20.71;68.18;99413.30;1778499;80;21235;-84
2022/08/29 05:30:59;;;;;;;26.07;12.30;;;;;;;20.75;68.24;99411.20;1786927;80;22036;-83
2022/08/29 05:33:26;;;;;;;16.57;11.97;;;;;;;20.79;67.64;99415.05;1754866;80;21033;-81
2022/08/29 05:35:55;;;;;;;18.12;11.68;;;;;;;20.85;67.45;99412.45;1775352;79;21100;-85
2022/08/29 05:38:21;;;;;;;17.85;11.00;;;;;;;20.90;67.43;99415.22;1765683;79;21049;-76
2022/08/29 05:40:48;;;;;;;15.30;11.08;;;;;;;20.94;67.31;99415.05;1762105;80;21045;-76
2022/08/29 05:43:14;;;;;;;17.80;12.78;;;;;;;21.01;67.68;99419.73;1763585;80;21175;-77
2022/08/29 05:45:43;;;;;;;19.32;12.75;;;;;;;21.07;67.17;99418.75;1787085;80;21025;-75
2022/08/29 05:48:09;;;;;;;17.12;12.33;;;;;;;21.12;66.83;99424.25;1782383;80;21088;-76
2022/08/29 05:50:41;;;;;;;20.02;12.90;;;;;;;21.16;66.99;99421.87;1759232;80;21324;-75
2022/08/29 05:53:10;;;;;;;16.75;12.37;;;;;;;21.21;66.94;99427.38;1757495;80;21009;-77
2022/08/29 05:55:42;;;;;;;18.27;12.05;;;;;;;21.25;66.72;99417.70;1747792;80;21152;-80
2022/08/29 05:58:09;;;;;;;14.33;11.70;;;;;;;21.30;66.84;99416.95;1754931;80;21013;-79
2022/08/29 06:00:43;;;;;;;22.70;13.18;;;;;;;21.36;67.11;99417.31;1759487;80;21091;-84
2022/08/29 06:03:10;;;;;;;16.85;12.35;;;;;;;21.43;67.05;99417.97;1755664;80;21077;-83
2022/08/29 06:05:39;;;;;;;19.32;12.75;;;;;;;21.50;66.90;99417.82;1760027;80;21001;-82
2022/08/29 06:08:06;;;;;;;20.15;13.53;;;;;;;21.57;66.91;99430.64;1749671;80;21133;-83
2022/08/29 06:10:40;;;;;;;21.40;13.83;;;;;;;21.66;66.05;99426.99;1758949;80;21045;-84
2022/08/29 06:13:07;;;;;;;18.75;13.22;;;;;;;21.73;66.33;99435.22;1764586;80;21006;-83
2022/08/29 06:15:33;;;;;;;21.50;13.93;;;;;;;21.80;65.97;99427.72;1748944;80;21020;-82
2022/08/29 06:18:00;;;;;;;15.93;13.30;;;;;;;21.89;65.99;99427.31;1759126;80;21013;-82
2022/08/29 06:20:26;;;;;;;20.20;13.25;;;;;;;21.97;65.79;99427.68;1752858;79;20941;-81
2022/08/29 06:22:53;;;;;;;16.42;13.62;;;;;;;22.07;65.55;99420.23;1768223;76;20968;-83
2022/08/29 06:25:20;;;;;;;14.18;12.55;;;;;;;22.18;65.83;99422.53;1760062;78;20990;-83
2022/08/29 06:27:46;;;;;;;14.20;12.35;;;;;;;22.29;65.56;99425.68;1765182;80;21005;-79
2022/08/29 06:30:13;;;;;;;17.25;12.37;;;;;;;22.44;64.93;99425.56;1747532;80;21061;-82
2022/08/29 06:32:40;;;;;;;17.55;14.47;;;;;;;22.54;64.44;99418.89;1757306;80;21118;-82
2022/08/29 06:35:07;;;;;;;18.92;12.68;;;;;;;22.64;64.11;99427.66;1766552;80;21092;-79
2022/08/29 06:37:34;;;;;;;17.25;13.55;;;;;;;22.73;64.37;99427.48;1759523;80;21354;-79
2022/08/29 06:40:01;;;;;;;20.30;13.10;;;;;;;22.86;63.56;99433.84;1747799;80;21076;-82
2022/08/29 06:42:28;;;;;;;16.97;12.95;;;;;;;22.98;62.87;99426.91;1766928;80;21077;-81
2022/08/29 06:44:54;;;;;;;18.00;13.50;;;;;;;23.10;62.79;99437.59;1759895;80;21178;-81
2022/08/29 06:47:21;;;;;;;16.55;12.10;;;;;;;23.22;62.61;99434.20;1754462;80;21018;-79
2022/08/29 06:49:47;;;;;;;15.23;12.75;;;;;;;23.32;62.10;99436.16;1745717;81;21045;-80
2022/08/29 06:52:14;;;;;;;15.00;12.30;;;;;;;23.44;61.64;99434.63;1753565;80;21495;-80
2022/08/29 06:54:41;;;;;;;17.05;12.33;;;;;;;23.53;61.19;99442.01;1761723;81;22106;-82
2022/08/29 06:57:08;;;;;;;17.98;13.70;;;;;;;23.62;61.19;99445.58;1724891;82;21183;-82
2022/08/29 06:59:36;;;;;;;18.25;14.05;;;;;;;23.69;60.83;99449.70;1763238;81;21042;-80
2022/08/29 07:02:02;;;;;;;14.87;12.65;;;;;;;23.80;60.82;99456.56;1756931;81;21159;-81
2022/08/29 07:04:29;;;;;;;19.20;13.55;;;;;;;23.87;60.56;99455.25;1734144;81;21050;-82
2022/08/29 07:06:56;;;;;;;16.82;12.40;;;;;;;23.93;60.07;99454.73;1744238;81;20999;-81
2022/08/29 07:09:22;;;;;;;16.32;12.95;;;;;;;24.00;60.21;99458.03;1741291;81;21921;-82
2022/08/29 07:11:49;;;;;;;15.80;14.20;;;;;;;24.07;59.85;99454.55;1759324;81;21033;-82
2022/08/29 07:14:19;;;;;;;15.48;12.80;;;;;;;24.15;59.99;99453.23;1762067;80;20982;-82
2022/08/29 07:16:45;;;;;;;16.62;13.25;;;;;;;24.24;59.47;99458.44;1760015;81;21032;-85
2022/08/29 07:19:12;;;;;;;18.37;13.72;;;;;;;24.31;59.30;99458.98;1752792;80;21066;-85
2022/08/29 07:21:38;;;;;;;14.47;12.78;;;;;;;24.41;59.24;99458.75;1757435;81;21162;-82
2022/08/29 07:24:05;;;;;;;16.07;12.82;;;;;;;24.48;58.44;99455.25;1741198;81;21521;-84
2022/08/29 07:26:37;;;;;;;16.42;13.38;;;;;;;24.55;58.27;99461.81;1751895;81;20998;-83
2022/08/29 07:29:09;;;;;;;18.25;13.15;;;;;;;24.59;58.15;99461.55;1751510;81;21007;-84
2022/08/29 07:31:37;;;;;;;20.10;12.93;;;;;;;24.64;58.54;99458.86;1761847;81;21041;-85
2022/08/29 07:34:05;;;;;;;17.80;13.22;;;;;;;24.73;58.48;99458.06;1767778;81;21512;-84
2022/08/29 07:36:32;;;;;;;17.57;13.10;;;;;;;24.81;58.80;99459.43;1747048;80;21120;-85
2022/08/29 07:38:59;;;;;;;17.92;12.47;;;;;;;24.90;58.47;99459.18;1710189;82;20987;-82
2022/08/29 07:41:27;;;;;;;17.73;13.32;;;;;;;25.00;57.79;99453.49;1720220;82;21110;-83
2022/08/29 07:43:53;;;;;;;17.30;13.30;;;;;;;25.08;57.46;99455.11;1686516;84;21071;-86
2022/08/29 07:46:20;;;;;;;17.05;14.10;;;;;;;25.16;57.63;99455.12;1752071;81;21823;-84
2022/08/29 07:48:47;;;;;;;14.47;12.95;;;;;;;25.25;57.93;99448.64;1748971;80;21589;-82
2022/08/29 07:51:17;;;;;;;16.10;13.30;;;;;;;25.33;57.35;99450.80;1747130;81;20982;-80
2022/08/29 07:53:44;;;;;;;16.17;13.85;;;;;;;25.41;56.91;99449.44;1744256;81;21077;-83
2022/08/29 07:56:14;;;;;;;18.42;13.90;;;;;;;25.52;57.03;99448.34;1751674;80;21010;-81
2022/08/29 07:58:41;;;;;;;16.70;14.00;;;;;;;25.64;56.42;99448.05;1745685;81;21298;-80
2022/08/29 08:01:10;;;;;;;17.10;13.70;;;;;;;25.75;55.73;99452.91;1681209;84;21049;-79
2022/08/29 08:03:37;;;;;;;15.28;12.40;;;;;;;25.85;55.70;99450.99;1683532;84;21007;-82
2022/08/29 08:06:04;;;;;;;20.20;14.10;;;;;;;25.96;55.42;99451.82;1680379;84;21022;-82
2022/08/29 08:08:31;;;;;;;19.07;14.00;;;;;;;26.05;54.85;99451.49;1720878;82;21609;-78
2022/08/29 08:10:58;;;;;;;15.98;13.13;;;;;;;26.15;55.00;99448.47;1742522;81;21806;-83
2022/08/29 08:13:27;;;;;;;17.85;14.03;;;;;;;26.26;55.09;99441.90;1755715;81;21057;-80
2022/08/29 08:15:54;;;;;;;19.80;14.47;;;;;;;26.38;54.96;99447.82;1741696;81;21486;-82
2022/08/29 08:18:24;;;;;;;22.37;14.20;;;;;;;26.46;54.67;99446.42;1753407;81;20982;-83
2022/08/29 08:20:51;;;;;;;16.60;13.58;;;;;;;26.58;54.49;99447.44;1745851;81;21045;-84
2022/08/29 08:23:18;;;;;;;17.77;13.35;;;;;;;26.73;53.61;99447.38;1748012;81;21218;-83
2022/08/29 08:25:45;;;;;;;14.33;12.60;;;;;;;26.88;52.81;99449.20;1743372;81;21042;-82
2022/08/29 08:28:12;;;;;;;15.38;13.35;;;;;;;27.03;52.07;99449.64;1754663;80;21089;-83
2022/08/29 08:30:38;;;;;;;15.90;13.05;;;;;;;27.14;52.32;99454.45;1744222;81;21001;-80
2022/08/29 08:33:05;;;;;;;15.15;11.93;;;;;;;27.25;52.00;99450.05;1747042;81;21050;-83
2022/08/29 08:35:36;;;;;;;15.78;13.38;;;;;;;27.41;52.51;99446.63;1750876;81;21147;-84
2022/08/29 08:38:03;;;;;;;16.62;12.78;;;;;;;27.56;51.95;99452.47;1746203;81;20978;-88
2022/08/29 08:40:30;;;;;;;19.73;13.00;;;;;;;27.73;51.56;99449.86;1754129;81;21053;-88
2022/08/29 08:43:00;;;;;;;13.88;12.47;;;;;;;27.85;50.48;99455.73;1773177;79;20995;-91
2022/08/29 08:45:37;;;;;;;12.75;11.33;;;;;;;27.98;50.34;99446.07;1685728;78;21001;-88
2022/08/29 08:48:10;;;;;;;16.10;12.20;;;;;;;28.11;49.34;99455.48;1627275;87;21791;-89
2022/08/29 08:51:03;;;;;;;15.03;11.95;;;;;;;28.23;48.84;99449.05;1611654;87;21057;-85
2022/08/29 08:53:47;;;;;;;13.80;11.75;;;;;;;28.33;48.22;99449.47;1614363;87;21682;-77
2022/08/29 08:56:32;;;;;;;12.73;11.50;;;;;;;28.47;48.38;99453.65;1608794;89;21643;-80
2022/08/29 08:59:31;;;;;;;13.00;11.68;;;;;;;28.62;47.73;99445.27;1623765;87;21151;-78
2022/08/29 09:02:15;;;;;;;15.43;10.60;;;;;;;28.80;47.53;99453.20;1608508;87;22307;-79
2022/08/29 09:04:56;;;;;;;12.88;10.85;;;;;;;29.02;46.73;99456.14;1607860;87;21059;-81
2022/08/29 09:07:40;;;;;;;14.98;11.55;;;;;;;29.11;44.66;99454.93;1588856;87;21082;-79
2022/08/29 09:10:37;;;;;;;13.83;11.22;;;;;;;29.24;44.70;99462.13;1608960;87;21064;-81
2022/08/29 09:13:27;;;;;;;14.25;11.22;;;;;;;29.55;45.37;99459.14;1610035;87;21152;-84
2022/08/29 09:15:57;;;;;;;12.30;9.55;;;;;;;30.10;44.92;99452.11;1608582;87;21047;-78
2022/08/29 09:18:33;;;;;;;14.25;9.25;;;;;;;30.66;41.89;99449.55;1601615;87;21093;-79
2022/08/29 09:21:01;;;;;;;12.85;9.05;;;;;;;31.15;43.08;99445.11;1603386;87;21119;-81
2022/08/29 09:23:42;;;;;;;16.20;9.98;;;;;;;31.78;42.16;99453.41;1609574;87;21075;-83
2022/08/29 09:26:11;;;;;;;11.15;9.25;;;;;;;32.45;39.85;99443.27;1614983;87;21088;-78
2022/08/29 09:28:38;;;;;;;15.35;9.20;;;;;;;33.03;38.61;99449.45;1603314;87;21195;-80
2022/08/29 09:31:25;;;;;;;11.93;9.53;;;;;;;33.49;38.63;99453.44;1610786;87;21125;-79
2022/08/29 09:34:04;;;;;;;14.35;9.43;;;;;;;34.02;37.81;99456.27;1606533;89;21552;-83
2022/08/29 09:36:47;;;;;;;14.95;9.85;;;;;;;34.58;36.95;99448.41;1608736;87;21120;-79
2022/08/29 09:39:33;;;;;;;15.53;9.43;;;;;;;35.07;36.24;99448.66;1608587;87;21123;-81
2022/08/29 09:42:16;;;;;;;17.00;9.60;;;;;;;35.42;35.57;99438.66;1598873;87;21317;-82
2022/08/29 09:44:57;;;;;;;11.22;9.23;;;;;;;35.75;35.64;99445.52;1626901;84;21076;-85
2022/08/29 09:47:27;;;;;;;13.15;9.20;;;;;;;36.22;34.73;99455.36;1638431;86;21065;-84
2022/08/29 09:50:18;;;;;;;13.80;8.85;;;;;;;36.57;33.89;99437.64;1641367;86;21096;-84
2022/08/29 09:52:56;;;;;;;11.73;9.25;;;;;;;36.89;33.59;99441.93;1641461;86;21002;-85
2022/08/29 09:55:41;;;;;;;10.95;9.83;;;;;;;37.26;32.95;99439.59;1658345;85;22532;-83
2022/08/29 09:58:13;;;;;;;10.03;8.98;;;;;;;37.41;31.91;99445.73;1644735;85;21022;-84
2022/08/29 10:00:43;;;;;;;;;;;;;;;37.56;32.39;99434.45;1655906;85;21093;-87
2022/08/29 10:03:19;;;;;;;10.45;8.38;;;;;;;37.89;31.40;99446.57;1657600;85;20215;-84
2022/08/29 10:05:45;;;;;;;10.75;8.40;;;;;;;38.03;31.67;99439.17;1642595;86;21085;-86
2022/08/29 10:08:36;;;;;;;16.20;8.25;;;;;;;38.10;30.41;99445.52;1631331;86;21223;-80
2022/08/29 10:11:17;;;;;;;11.38;8.13;;;;;;;37.99;30.48;99434.12;1591509;84;21088;-83
2022/08/29 10:13:57;;;;;;;10.70;8.23;;;;;;;38.18;30.67;99436.77;1685943;84;21033;-86
2022/08/29 10:16:32;;;;;;;10.00;8.28;;;;;;;38.41;30.46;99434.11;1650486;85;21088;-86
2022/08/29 10:19:03;;;;;;;9.30;7.95;;;;;;;38.68;29.33;99436.50;1676834;84;21113;-81
2022/08/29 10:22:25;;;;;;;11.38;8.48;;;;;;;38.78;28.97;99431.73;1686610;84;21150;-79
2022/08/29 10:25:06;;;;;;;10.05;7.70;;;;;;;38.73;28.62;99435.63;1591643;88;21109;-83
2022/08/29 10:27:56;;;;;;;11.25;7.80;;;;;;;38.61;29.54;99433.56;1658076;83;21538;-89
2022/08/29 10:30:27;;;;;;;9.00;7.72;;;;;;;38.70;29.58;99429.41;1684336;84;21402;-90
2022/08/29 10:33:17;;;;;;;10.28;7.80;;;;;;;39.07;29.78;99436.50;1693700;83;21055;-86
2022/08/29 10:35:58;;;;;;;8.53;7.25;;;;;;;39.66;28.58;99426.86;1678096;83;21119;-84
2022/08/29 10:38:51;;;;;;;9.68;8.18;;;;;;;40.18;28.65;99419.50;1662251;84;21016;-82
2022/08/29 10:41:31;;;;;;;10.38;9.20;;;;;;;40.52;27.47;99427.35;1631176;85;20999;-85
2022/08/29 10:44:06;;;;;;;10.18;8.65;;;;;;;40.59;27.85;99428.05;1636228;86;21214;-82
2022/08/29 10:47:15;;;;;;;11.03;7.83;;;;;;;40.75;27.11;99418.09;1635643;85;21562;-85
2022/08/29 10:50:11;;;;;;;10.13;7.97;;;;;;;40.88;27.57;99420.86;1597811;90;21154;-91
2022/08/29 10:53:01;;;;;;;9.28;8.33;;;;;;;41.14;26.79;99420.52;1622333;88;21113;-88
2022/08/29 10:55:42;;;;;;;10.25;7.67;;;;;;;40.95;27.31;99406.20;1655300;85;21142;-86
2022/08/29 10:58:31;;;;;;;9.73;8.55;;;;;;;40.96;27.11;99410.00;1620947;86;21034;-81
2022/08/29 11:01:15;;;;;;;10.55;8.50;;;;;;;41.20;27.59;99411.45;1667700;85;21085;-81
2022/08/29 11:04:18;;;;;;;9.05;8.18;;;;;;;41.87;27.29;99408.86;1659919;85;21123;-80
2022/08/29 11:07:15;;;;;;;12.37;8.38;;;;;;;42.66;26.87;99411.50;1604193;87;21464;-83
2022/08/29 11:09:46;;;;;;;9.00;7.85;;;;;;;42.98;26.07;99413.03;1664916;83;20984;-87
2022/08/29 11:12:32;;;;;;;9.30;8.48;;;;;;;42.99;26.56;99414.61;1633686;83;21092;-84
2022/08/29 11:15:12;;;;;;;8.98;7.67;;;;;;;43.24;26.34;99410.27;1619075;88;21277;-82
2022/08/29 11:17:40;;;;;;;8.03;7.33;;;;;;;43.52;25.48;99413.11;1665700;85;21498;-78
2022/08/29 11:20:20;;;;;;;9.30;8.15;;;;;;;43.37;25.62;99411.52;1663547;85;21014;-81
2022/08/29 11:22:53;;;;;;;9.35;8.23;;;;;;;43.01;25.84;99410.83;1669920;85;21577;-82
2022/08/29 11:25:20;;;;;;;8.68;7.87;;;;;;;42.75;26.04;99421.72;1641261;85;21074;-86
2022/08/29 11:28:09;;;;;;;8.30;7.60;;;;;;;42.41;26.18;99418.36;1620854;87;21082;-85
2022/08/29 11:30:47;;;;;;;8.83;7.95;;;;;;;42.01;26.21;99417.30;1628991;87;21793;-89
2022/08/29 11:33:31;;;;;;;8.88;7.70;;;;;;;41.52;26.54;99410.16;1657019;85;21073;-87
2022/08/29 11:36:27;;;;;;;10.43;8.00;;;;;;;41.18;26.96;99408.22;1652257;85;21035;-84
2022/08/29 11:42:12;;;;;;;8.68;7.87;;;;;;;40.20;27.83;99408.23;1709994;82;21056;-82
2022/08/29 11:44:44;;;;;;;10.75;9.23;;;;;;;39.62;28.96;99406.55;1712414;82;21531;-86
2022/08/29 11:47:50;;;;;;;11.50;9.00;;;;;;;39.21;28.91;99423.45;1703618;82;21503;-82